createdAt,value
2014-08-05T08:09:08.309Z,21.82
2014-08-05T08:10:12.984Z,22.22
2014-08-05T08:11:17.971Z,22.54
2014-08-05T08:12:22.645Z,22.93
2014-08-05T08:13:26.647Z,23.19
2014-08-05T08:14:31.616Z,23.06
2014-08-05T08:15:36.307Z,23.44
2014-08-05T08:16:40.981Z,23.31
2014-08-05T08:17:45.967Z,23.52
2014-08-05T08:18:50.641Z,23.51
2014-08-05T08:19:55.627Z,23.91
2014-08-05T08:21:00.317Z,24.04
2014-08-05T08:22:05.303Z,24.62
2014-08-05T08:23:09.977Z,25.01
2014-08-05T08:24:14.667Z,25.02
2014-08-05T08:25:19.341Z,24.94
2014-08-05T08:26:24.030Z,24.84
2014-08-05T08:27:29.016Z,24.51
2014-08-05T08:28:33.987Z,24.47
2014-08-05T08:29:38.974Z,24.75
2014-08-05T08:30:43.960Z,24.9
2014-08-05T08:31:48.947Z,24.86
2014-08-05T08:32:53.935Z,24.71
2014-08-05T08:33:58.904Z,24.55
2014-08-05T08:35:03.595Z,24.33
2014-08-05T08:36:08.580Z,24.04
2014-08-05T08:37:13.568Z,23.94
2014-08-05T08:38:18.554Z,23.92
2014-08-05T08:39:23.228Z,23.76
2014-08-05T08:40:28.214Z,23.86
2014-08-05T08:41:33.200Z,23.92
2014-08-05T08:42:37.890Z,23.8
2014-08-05T08:43:42.564Z,23.68
2014-08-05T08:44:47.550Z,23.86
2014-08-05T08:45:52.239Z,23.88
2014-08-05T08:46:56.929Z,24.29
2014-08-05T08:48:01.619Z,24.3
2014-08-05T08:49:06.902Z,24.54
2014-08-05T08:50:11.592Z,24.82
2014-08-05T08:51:16.281Z,25.09
2014-08-05T08:52:20.971Z,25.28
2014-08-05T08:53:25.645Z,25.53
2014-08-05T08:54:30.647Z,25.6
2014-08-05T08:55:35.320Z,25.4
2014-08-05T08:56:40.306Z,25.22
2014-08-05T08:57:45.294Z,25.56
2014-08-05T08:58:49.984Z,25.29
2014-08-05T08:59:54.970Z,25.16
2014-08-05T09:01:00.253Z,24.86
2014-08-05T09:02:04.943Z,24.86
2014-08-05T09:03:09.929Z,24.88
2014-08-05T09:04:14.619Z,24.85
2014-08-05T09:05:19.605Z,25.11
2014-08-05T09:06:24.295Z,25.34
2014-08-05T09:07:29.281Z,25.5
2014-08-05T09:08:34.267Z,25.81
2014-08-05T09:09:38.957Z,25.9
2014-08-05T09:10:43.645Z,25.86
2014-08-05T09:11:48.632Z,26.06
2014-08-05T09:12:53.918Z,25.77
2014-08-05T09:13:58.607Z,25.44
2014-08-05T09:15:03.593Z,25.35
2014-08-05T09:16:07.626Z,25.23
2014-08-05T09:17:12.597Z,25.12
2014-08-05T09:18:16.599Z,25.08
2014-08-05T09:19:21.288Z,24.9
2014-08-05T09:20:26.275Z,24.88
2014-08-05T09:21:30.964Z,24.92
2014-08-05T09:22:35.951Z,25.13
2014-08-05T09:23:41.234Z,25.4
2014-08-05T09:24:46.532Z,25.82
2014-08-05T09:25:51.519Z,25.6
2014-08-05T09:26:56.209Z,25.75
2014-08-05T09:28:00.898Z,25.65
2014-08-05T09:29:05.571Z,25.92
2014-08-05T09:30:10.575Z,25.85
2014-08-05T09:31:15.858Z,25.69
2014-08-05T09:32:21.142Z,25.61
2014-08-05T09:33:26.143Z,25.38
2014-08-05T09:34:30.818Z,25.35
2014-08-05T09:35:36.102Z,25.39
2014-08-05T09:36:40.791Z,25.49
2014-08-05T09:37:45.777Z,25.74
2014-08-05T09:38:50.763Z,26
2014-08-05T09:39:55.438Z,25.9
2014-08-05T09:41:00.423Z,26
2014-08-05T09:42:05.706Z,25.89
2014-08-05T09:43:10.693Z,26.11
2014-08-05T09:44:15.679Z,26.33
2014-08-05T09:45:20.369Z,26.37
2014-08-05T09:46:25.355Z,26.16
2014-08-05T09:47:30.045Z,26.04
2014-08-05T09:48:35.033Z,26.32
2014-08-05T09:49:40.018Z,26.22
2014-08-05T09:50:44.708Z,26.05
2014-08-05T09:51:49.382Z,26.07
2014-08-05T09:52:54.071Z,25.99
2014-08-05T09:53:58.761Z,25.71
2014-08-05T09:55:03.747Z,25.5
2014-08-05T09:56:08.734Z,25.25
2014-08-05T09:57:13.408Z,25.45
2014-08-05T09:58:18.691Z,25.4
2014-08-05T09:59:23.677Z,25.82
2014-08-05T10:00:28.382Z,26.02
2014-08-05T10:01:33.071Z,25.83
2014-08-05T10:02:38.355Z,25.63
2014-08-05T10:03:43.044Z,25.9
2014-08-05T10:04:47.736Z,25.72
2014-08-05T10:05:52.410Z,25.51
2014-08-05T10:06:57.099Z,25.18
2014-08-05T10:08:02.085Z,25.43
2014-08-05T10:09:06.759Z,25.61
2014-08-05T10:10:11.464Z,25.88
2014-08-05T10:11:16.451Z,26.12
2014-08-05T10:12:21.436Z,26.02
2014-08-05T10:13:26.424Z,26.14
2014-08-05T10:14:31.394Z,26.14
2014-08-05T10:15:36.084Z,26.32
2014-08-05T10:16:41.070Z,26.54
2014-08-05T10:17:46.057Z,26.42
2014-08-05T10:18:51.026Z,26.69
2014-08-05T10:19:55.716Z,26.63
2014-08-05T10:21:00.407Z,26.71
2014-08-05T10:22:05.097Z,26.91
2014-08-05T10:23:09.786Z,26.86
2014-08-05T10:24:14.773Z,26.96
2014-08-05T10:25:19.461Z,26.79
2014-08-05T10:26:24.449Z,26.51
2014-08-05T10:27:29.122Z,26.78
2014-08-05T10:28:34.406Z,26.62
2014-08-05T10:29:39.220Z,26.33
2014-08-05T10:30:43.910Z,26.5
2014-08-05T10:31:48.599Z,26.59
2014-08-05T10:32:53.570Z,26.97
2014-08-05T10:33:58.556Z,26.82
2014-08-05T10:35:03.245Z,26.56
2014-08-05T10:36:08.231Z,26.44
2014-08-05T10:37:12.924Z,26.59
2014-08-05T10:38:18.206Z,26.5
2014-08-05T10:39:22.895Z,26.5
2014-08-05T10:40:27.585Z,26.67
2014-08-05T10:41:32.274Z,26.2
2014-08-05T10:42:37.261Z,26.32
2014-08-05T10:43:42.325Z,26.24
2014-08-05T10:44:47.015Z,26.37
2014-08-05T10:45:51.703Z,26.23
2014-08-05T10:46:56.378Z,26.54
2014-08-05T10:48:01.068Z,25.88
2014-08-05T10:49:06.053Z,25.64
2014-08-05T10:50:10.744Z,25.92
2014-08-05T10:51:15.729Z,26.41
2014-08-05T10:52:20.434Z,26.53
2014-08-05T10:53:25.124Z,26.93
2014-08-05T10:54:30.112Z,26.52
2014-08-05T10:55:35.099Z,26.16
2014-08-05T10:56:39.789Z,26.37
2014-08-05T10:57:44.463Z,26.77
2014-08-05T10:58:49.151Z,26.77
2014-08-05T10:59:53.841Z,26.5
2014-08-05T11:00:58.827Z,26.14
2014-08-05T11:02:03.814Z,26.1
2014-08-05T11:03:08.503Z,26.58
2014-08-05T11:04:13.802Z,26.77
2014-08-05T11:05:18.788Z,27.09
2014-08-05T11:06:23.478Z,27.36
2014-08-05T11:07:28.167Z,27.02
2014-08-05T11:08:32.858Z,26.8
2014-08-05T11:09:37.827Z,26.95
2014-08-05T11:10:42.517Z,26.85
2014-08-05T11:11:47.503Z,26.94
2014-08-05T11:12:51.505Z,26.92
2014-08-05T11:13:56.492Z,26.78
2014-08-05T11:15:01.181Z,27
2014-08-05T11:16:05.857Z,26.7
2014-08-05T11:17:10.547Z,26.78
2014-08-05T11:18:15.236Z,26.65
2014-08-05T11:19:20.222Z,26.22
2014-08-05T11:20:24.912Z,26.52
2014-08-05T11:21:29.601Z,26.48
2014-08-05T11:22:34.290Z,26.4
2014-08-05T11:23:39.276Z,26.34
2014-08-05T11:24:43.967Z,26.45
2014-08-05T11:25:48.641Z,25.96
2014-08-05T11:26:53.626Z,25.79
2014-08-05T11:27:58.316Z,25.89
2014-08-05T11:29:03.319Z,26.18
2014-08-05T11:30:08.007Z,26.56
2014-08-05T11:31:12.994Z,26.88
2014-08-05T11:32:17.980Z,26.69
2014-08-05T11:33:22.670Z,26.74
2014-08-05T11:34:27.344Z,27.04
2014-08-05T11:35:32.034Z,26.97
2014-08-05T11:36:37.021Z,27.06
2014-08-05T11:37:41.711Z,26.62
2014-08-05T11:38:46.401Z,26.67
2014-08-05T11:39:51.091Z,26.74
2014-08-05T11:40:55.779Z,26.8
2014-08-05T11:42:00.453Z,26.87
2014-08-05T11:43:05.439Z,26.77
2014-08-05T11:44:10.129Z,26.51
2014-08-05T11:45:14.818Z,26.44
2014-08-05T11:46:19.805Z,26.54
2014-08-05T11:47:24.493Z,26.52
2014-08-05T11:48:29.199Z,26.16
2014-08-05T11:49:33.873Z,26.55
2014-08-05T11:50:38.562Z,26.65
2014-08-05T11:51:43.251Z,26.42
2014-08-05T11:52:48.240Z,26.47
2014-08-05T11:53:53.523Z,26.33
2014-08-05T11:54:58.806Z,26.4
2014-08-05T11:56:03.792Z,26.49
2014-08-05T11:57:08.466Z,26.29
2014-08-05T11:58:13.453Z,26.44
2014-08-05T11:59:18.439Z,26.28
2014-08-05T12:00:23.129Z,26.37
2014-08-05T12:01:28.412Z,26.56
2014-08-05T12:02:33.398Z,26.17
2014-08-05T12:03:38.088Z,26.06
2014-08-05T12:04:43.074Z,25.98
2014-08-05T12:05:47.748Z,25.98
2014-08-05T12:06:53.031Z,26.17
2014-08-05T12:07:57.720Z,26.29
2014-08-05T12:09:02.709Z,26.5
2014-08-05T12:10:07.398Z,26.7
2014-08-05T12:11:12.385Z,26.74
2014-08-05T12:12:17.355Z,26.5
2014-08-05T12:13:22.044Z,26.26
2014-08-05T12:14:27.032Z,26.12
2014-08-05T12:15:32.018Z,25.92
2014-08-05T12:16:37.003Z,26.18
2014-08-05T12:17:41.990Z,26.18
2014-08-05T12:18:46.976Z,26.2
2014-08-05T12:19:51.962Z,26.24
2014-08-05T12:20:56.949Z,26.41
2014-08-05T12:22:01.638Z,26.33
2014-08-05T12:23:06.327Z,26.5
2014-08-05T12:24:11.313Z,26.48
2014-08-05T12:25:16.302Z,26.17
2014-08-05T12:26:20.976Z,26.03
2014-08-05T12:27:25.666Z,26.15
2014-08-05T12:28:30.948Z,26.3
2014-08-05T12:29:35.622Z,26.26
2014-08-05T12:30:40.312Z,26.25
2014-08-05T12:31:44.314Z,26.07
2014-08-05T12:32:49.300Z,26
2014-08-05T12:33:53.989Z,25.8
2014-08-05T12:34:58.663Z,25.86
2014-08-05T12:36:03.650Z,26.1
2014-08-05T12:37:08.636Z,26.38
2014-08-05T12:38:13.326Z,26.13
2014-08-05T12:39:18.015Z,26.16
2014-08-05T12:40:23.001Z,26.22
2014-08-05T12:41:27.693Z,26.02
2014-08-05T12:42:32.382Z,25.66
2014-08-05T12:43:37.056Z,25.96
2014-08-05T12:44:41.746Z,26.24
2014-08-05T12:45:46.732Z,26.32
2014-08-05T12:46:51.406Z,26.15
2014-08-05T12:47:56.096Z,26.03
2014-08-05T12:49:00.785Z,26.18
2014-08-05T12:50:05.771Z,26.17
2014-08-05T12:51:10.758Z,26.24
2014-08-05T12:52:15.447Z,26.22
2014-08-05T12:53:20.121Z,26.21
2014-08-05T12:54:24.122Z,25.86
2014-08-05T12:55:29.110Z,26.21
2014-08-05T12:56:33.798Z,26.54
2014-08-05T12:57:38.784Z,26.64
2014-08-05T12:58:43.458Z,26.56
2014-08-05T12:59:48.149Z,26.72
2014-08-05T13:00:53.432Z,26.77
2014-08-05T13:01:58.417Z,26.83
2014-08-05T13:03:03.405Z,26.66
2014-08-05T13:04:08.096Z,26.48
2014-08-05T13:05:13.082Z,26.22
2014-08-05T13:06:18.068Z,26.33
2014-08-05T13:07:23.054Z,26.58
2014-08-05T13:08:27.745Z,26.41
2014-08-05T13:09:32.731Z,26.41
2014-08-05T13:10:37.404Z,26.66
2014-08-05T13:11:42.391Z,26.76
2014-08-05T13:12:47.080Z,26.74
2014-08-05T13:13:51.770Z,26.44
2014-08-05T13:14:56.459Z,26.53
2014-08-05T13:16:01.133Z,26.64
2014-08-05T13:17:05.838Z,26.34
2014-08-05T13:18:10.528Z,26.44
2014-08-05T13:19:15.217Z,26.58
2014-08-05T13:20:20.202Z,26.69
2014-08-05T13:21:25.190Z,26.99
2014-08-05T13:22:30.176Z,27.02
2014-08-05T13:23:35.148Z,26.97
2014-08-05T13:24:39.838Z,26.97
2014-08-05T13:25:43.839Z,27.06
2014-08-05T13:26:48.530Z,26.79
2014-08-05T13:27:53.516Z,26.83
2014-08-05T13:28:58.205Z,26.72
2014-08-05T13:30:03.192Z,26.68
2014-08-05T13:31:07.866Z,26.82
2014-08-05T13:32:11.867Z,26.8
2014-08-05T13:33:16.853Z,27.1
2014-08-05T13:34:21.543Z,27.12
2014-08-05T13:35:26.232Z,27.03
2014-08-05T13:36:30.922Z,27.04
2014-08-05T13:37:35.908Z,27.28
2014-08-05T13:38:40.582Z,27.2
2014-08-05T13:39:45.272Z,26.96
2014-08-05T13:40:50.556Z,26.82
2014-08-05T13:41:55.559Z,26.84
2014-08-05T13:43:00.233Z,26.56
2014-08-05T13:44:04.922Z,26.89
2014-08-05T13:45:09.612Z,27.15
2014-08-05T13:46:14.300Z,27.36
2014-08-05T13:47:18.990Z,27.21
2014-08-05T13:48:23.665Z,26.82
2014-08-05T13:49:28.650Z,26.64
2014-08-05T13:50:33.340Z,26.34
2014-08-05T13:51:38.029Z,26.52
2014-08-05T13:52:42.703Z,26.68
2014-08-05T13:53:47.393Z,26.61
2014-08-05T13:54:52.379Z,26.61
2014-08-05T13:55:57.084Z,26.44
2014-08-05T13:57:02.070Z,26.64
2014-08-05T13:58:07.041Z,26.78
2014-08-05T13:59:11.733Z,26.84
2014-08-05T14:00:16.719Z,26.85
2014-08-05T14:01:22.002Z,26.6
2014-08-05T14:02:27.285Z,26.72
2014-08-05T14:03:32.272Z,26.55
2014-08-05T14:04:36.961Z,26.3
2014-08-05T14:05:41.634Z,26.24
2014-08-05T14:06:46.621Z,26.32
2014-08-05T14:07:51.608Z,26.42
2014-08-05T14:08:56.594Z,26.38
2014-08-05T14:10:01.284Z,26.44
2014-08-05T14:11:06.269Z,26.44
2014-08-05T14:12:10.959Z,26.64
2014-08-05T14:13:15.649Z,26.6
2014-08-05T14:14:20.322Z,26.75
2014-08-05T14:15:25.015Z,26.89
2014-08-05T14:16:29.703Z,26.82
2014-08-05T14:17:34.689Z,26.91
2014-08-05T14:18:39.676Z,27.12
2014-08-05T14:19:44.365Z,26.9
2014-08-05T14:20:49.039Z,26.79
2014-08-05T14:21:53.729Z,26.9
2014-08-05T14:22:58.418Z,26.98
2014-08-05T14:24:03.405Z,26.72
2014-08-05T14:25:08.687Z,26.84
2014-08-05T14:26:13.971Z,26.64
2014-08-05T14:27:18.957Z,26.66
2014-08-05T14:28:23.943Z,26.6
2014-08-05T14:29:28.946Z,26.71
2014-08-05T14:30:33.932Z,27.02
2014-08-05T14:31:38.621Z,27.11
2014-08-05T14:32:43.610Z,27.07
2014-08-05T14:33:48.315Z,26.7
2014-08-05T14:34:53.004Z,26.81
2014-08-05T14:35:57.678Z,26.93
2014-08-05T14:37:02.367Z,27.06
2014-08-05T14:38:07.353Z,27.16
2014-08-05T14:39:12.340Z,27.04
2014-08-05T14:40:17.326Z,27.12
2014-08-05T14:41:22.016Z,26.92
2014-08-05T14:42:27.002Z,27.07
2014-08-05T14:43:32.285Z,26.98
2014-08-05T14:44:37.272Z,27.06
2014-08-05T14:45:42.242Z,27.35
2014-08-05T14:46:46.932Z,27.18
2014-08-05T14:47:51.621Z,27.11
2014-08-05T14:48:56.608Z,26.97
2014-08-05T14:50:01.299Z,26.91
2014-08-05T14:51:05.989Z,27.14
2014-08-05T14:52:10.678Z,27.02
2014-08-05T14:53:15.368Z,27
2014-08-05T14:54:20.056Z,26.41
2014-08-05T14:55:24.747Z,26.09
2014-08-05T14:56:29.733Z,26.5
2014-08-05T14:57:34.407Z,26.3
2014-08-05T14:58:39.393Z,26.25
2014-08-05T14:59:44.083Z,26.18
2014-08-05T15:00:49.069Z,26.24
2014-08-05T15:01:54.040Z,26.37
2014-08-05T15:02:59.026Z,26.38
2014-08-05T15:04:03.716Z,26.27
2014-08-05T15:05:08.406Z,26.34
2014-08-05T15:06:13.080Z,26.07
2014-08-05T15:07:18.081Z,25.93
2014-08-05T15:08:22.771Z,25.86
2014-08-05T15:09:27.445Z,26.02
2014-08-05T15:10:32.134Z,25.89
2014-08-05T15:11:36.840Z,25.89
2014-08-05T15:12:41.529Z,25.94
2014-08-05T15:13:46.234Z,25.8
2014-08-05T15:14:51.220Z,25.97
2014-08-05T15:15:56.208Z,26
2014-08-05T15:17:00.897Z,26.11
2014-08-05T15:18:05.586Z,26.14
2014-08-05T15:19:10.276Z,26.26
2014-08-05T15:20:14.950Z,26.16
2014-08-05T15:21:19.640Z,26.08
2014-08-05T15:22:24.641Z,26.08
2014-08-05T15:23:29.315Z,26.18
2014-08-05T15:24:34.302Z,26.09
2014-08-05T15:25:39.288Z,25.93
2014-08-05T15:26:43.978Z,26.01
2014-08-05T15:27:48.652Z,26.18
2014-08-05T15:28:53.342Z,25.98
2014-08-05T15:29:58.031Z,26.12
2014-08-05T15:31:03.001Z,26.09
2014-08-05T15:32:07.691Z,26.09
2014-08-05T15:33:12.380Z,25.99
2014-08-05T15:34:17.367Z,26.16
2014-08-05T15:35:22.056Z,26.32
2014-08-05T15:36:26.746Z,25.88
2014-08-05T15:37:31.437Z,26.03
2014-08-05T15:38:36.704Z,26.06
2014-08-05T15:39:41.394Z,25.96
2014-08-05T15:40:46.678Z,26.04
2014-08-05T15:41:51.664Z,26.16
2014-08-05T15:42:55.962Z,26.11
2014-08-05T15:44:00.637Z,26.09
2014-08-05T15:45:05.622Z,26.09
2014-08-05T15:46:10.608Z,25.88
2014-08-05T15:47:15.298Z,25.88
2014-08-05T15:48:20.582Z,25.94
2014-08-05T15:49:25.271Z,25.97
2014-08-05T15:50:29.945Z,25.9
2014-08-05T15:51:34.634Z,25.8
2014-08-05T15:52:39.918Z,25.85
2014-08-05T15:53:44.623Z,25.98
2014-08-05T15:54:49.892Z,25.99
2014-08-05T15:55:54.878Z,26.04
2014-08-05T15:57:00.162Z,25.96
2014-08-05T15:58:05.164Z,25.76
2014-08-05T15:59:10.166Z,25.94
2014-08-05T16:00:14.855Z,26.13
2014-08-05T16:01:19.842Z,26.01
2014-08-05T16:02:24.531Z,25.95
2014-08-05T16:03:29.205Z,25.73
2014-08-05T16:04:33.894Z,26.02
2014-08-05T16:05:38.584Z,26.12
2014-08-05T16:06:43.273Z,26.2
2014-08-05T16:07:48.259Z,26.43
2014-08-05T16:08:53.246Z,26.19
2014-08-05T16:09:58.232Z,26.19
2014-08-05T16:11:02.907Z,26.18
2014-08-05T16:12:07.894Z,26.24
2014-08-05T16:13:12.880Z,26.09
2014-08-05T16:14:17.851Z,26.03
2014-08-05T16:15:22.837Z,25.91
2014-08-05T16:16:27.527Z,25.96
2014-08-05T16:17:32.513Z,26.01
2014-08-05T16:18:37.537Z,25.98
2014-08-05T16:19:42.562Z,25.78
2014-08-05T16:20:47.588Z,25.72
2014-08-05T16:21:52.613Z,25.67
2014-08-05T16:22:57.356Z,25.7
2014-08-05T16:24:02.059Z,25.76
2014-08-05T16:25:07.060Z,25.62
2014-08-05T16:26:12.357Z,25.73
2014-08-05T16:27:17.372Z,25.78
2014-08-05T16:28:22.067Z,25.74
2014-08-05T16:29:27.058Z,25.62
2014-08-05T16:30:31.753Z,25.74
2014-08-05T16:31:36.432Z,25.79
2014-08-05T16:32:41.125Z,25.65
2014-08-05T16:33:45.817Z,25.27
2014-08-05T16:34:50.805Z,25.17
2014-08-05T16:35:55.792Z,25.3
2014-08-05T16:37:00.483Z,25.3
2014-08-05T16:38:05.159Z,25.61
2014-08-05T16:39:09.849Z,25.64
2014-08-05T16:40:14.539Z,25.59
2014-08-05T16:41:19.229Z,25.26
2014-08-05T16:42:24.217Z,25.36
2014-08-05T16:43:28.890Z,25.34
2014-08-05T16:44:33.879Z,25.5
2014-08-05T16:45:39.162Z,25.4
2014-08-05T16:46:43.852Z,25.15
2014-08-05T16:47:48.541Z,25.21
2014-08-05T16:48:53.527Z,25.28
2014-08-05T16:49:58.217Z,25.24
2014-08-05T16:51:02.906Z,25.07
2014-08-05T16:52:07.893Z,25.14
2014-08-05T16:53:12.567Z,25.17
2014-08-05T16:54:17.257Z,25.17
2014-08-05T16:55:21.946Z,24.91
2014-08-05T16:56:26.620Z,24.86
2014-08-05T16:57:31.622Z,24.94
2014-08-05T16:58:36.311Z,25.11
2014-08-05T16:59:41.297Z,25.05
2014-08-05T17:00:46.284Z,24.77
2014-08-05T17:01:50.958Z,24.7
2014-08-05T17:02:55.944Z,24.73
2014-08-05T17:04:00.650Z,24.76
2014-08-05T17:05:05.323Z,24.77
2014-08-05T17:06:10.014Z,24.8
2014-08-05T17:07:14.702Z,24.94
2014-08-05T17:08:19.704Z,24.88
2014-08-05T17:09:24.379Z,24.72
2014-08-05T17:10:29.364Z,24.76
2014-08-05T17:11:34.351Z,24.88
2014-08-05T17:12:39.042Z,24.88
2014-08-05T17:13:43.716Z,24.91
2014-08-05T17:14:48.406Z,24.63
2014-08-05T17:15:53.408Z,24.46
2014-08-05T17:16:58.081Z,24.51
2014-08-05T17:18:02.771Z,24.56
2014-08-05T17:19:07.460Z,24.35
2014-08-05T17:20:12.134Z,24.32
2014-08-05T17:21:16.824Z,24.64
2014-08-05T17:22:21.513Z,24.49
2014-08-05T17:23:26.186Z,24.26
2014-08-05T17:24:30.876Z,24.08
2014-08-05T17:25:36.160Z,24.13
2014-08-05T17:26:41.443Z,24.15
2014-08-05T17:27:46.133Z,24.18
2014-08-05T17:28:50.822Z,24.27
2014-08-05T17:29:55.808Z,24.58
2014-08-05T17:31:00.498Z,24.54
2014-08-05T17:32:05.171Z,24.56
2014-08-05T17:33:09.861Z,24.42
2014-08-05T17:34:14.552Z,24.36
2014-08-05T17:35:19.227Z,24.37
2014-08-05T17:36:23.916Z,24.43
2014-08-05T17:37:28.606Z,24.23
2014-08-05T17:38:33.280Z,24.22
2014-08-05T17:39:37.968Z,24.24
2014-08-05T17:40:42.658Z,24.18
2014-08-05T17:41:47.363Z,23.91
2014-08-05T17:42:52.037Z,23.88
2014-08-05T17:43:57.023Z,24.06
2014-08-05T17:45:01.713Z,23.85
2014-08-05T17:46:06.386Z,24.1
2014-08-05T17:47:11.076Z,24.26
2014-08-05T17:48:16.062Z,24.06
2014-08-05T17:49:20.752Z,24
2014-08-05T17:50:26.035Z,24.01
2014-08-05T17:51:30.725Z,23.98
2014-08-05T17:52:35.398Z,24.07
2014-08-05T17:53:40.088Z,24.23
2014-08-05T17:54:44.778Z,24.18
2014-08-05T17:55:49.453Z,24.26
2014-08-05T17:56:54.143Z,24.44
2014-08-05T17:57:59.129Z,24.27
2014-08-05T17:59:03.819Z,24.18
2014-08-05T18:00:08.789Z,23.96
2014-08-05T18:01:13.479Z,24.02
2014-08-05T18:02:18.465Z,24.08
2014-08-05T18:03:23.436Z,24.07
2014-08-05T18:04:28.126Z,24.2
2014-08-05T18:05:32.815Z,24.03
2014-08-05T18:06:37.505Z,23.97
2014-08-05T18:07:42.210Z,24.03
2014-08-05T18:08:46.899Z,24
2014-08-05T18:09:51.870Z,24
2014-08-05T18:10:56.855Z,24.02
2014-08-05T18:12:01.843Z,23.83
2014-08-05T18:13:06.532Z,23.67
2014-08-05T18:14:11.534Z,23.78
2014-08-05T18:15:16.224Z,23.67
2014-08-05T18:16:20.898Z,23.88
2014-08-05T18:17:25.588Z,23.88
2014-08-05T18:18:30.278Z,23.91
2014-08-05T18:19:34.967Z,23.97
2014-08-05T18:20:39.657Z,23.96
2014-08-05T18:21:44.331Z,23.64
2014-08-05T18:22:49.020Z,23.49
2014-08-05T18:23:54.006Z,23.42
2014-08-05T18:24:58.993Z,23.24
2014-08-05T18:26:03.682Z,23.38
2014-08-05T18:27:08.356Z,23.4
2014-08-05T18:28:13.046Z,23.14
2014-08-05T18:29:17.735Z,23.12
2014-08-05T18:30:22.408Z,23.23
2014-08-05T18:31:27.098Z,23.22
2014-08-05T18:32:32.085Z,23.38
2014-08-05T18:33:36.759Z,23.42
2014-08-05T18:34:41.448Z,23.42
2014-08-05T18:35:46.138Z,23.56
2014-08-05T18:36:50.814Z,23.46
2014-08-05T18:37:55.503Z,23.6
2014-08-05T18:39:00.192Z,23.66
2014-08-05T18:40:04.882Z,23.56
2014-08-05T18:41:09.572Z,23.5
2014-08-05T18:42:14.541Z,23.48
2014-08-05T18:43:19.529Z,23.55
2014-08-05T18:44:24.217Z,23.4
2014-08-05T18:45:29.501Z,23.42
2014-08-05T18:46:34.174Z,23.42
2014-08-05T18:47:38.865Z,23.15
2014-08-05T18:48:43.539Z,23.13
2014-08-05T18:49:48.227Z,23.23
2014-08-05T18:50:53.214Z,23.27
2014-08-05T18:51:58.185Z,23.04
2014-08-05T18:53:02.875Z,23.18
2014-08-05T18:54:07.548Z,22.94
2014-08-05T18:55:12.238Z,22.97
2014-08-05T18:56:17.224Z,23
2014-08-05T18:57:21.913Z,22.74
2014-08-05T18:58:26.902Z,22.58
2014-08-05T18:59:31.575Z,22.75
2014-08-05T19:00:36.562Z,23.02
2014-08-05T19:01:41.845Z,22.73
2014-08-05T19:02:46.831Z,22.98
2014-08-05T19:03:51.505Z,23.09
2014-08-05T19:04:56.195Z,23.02
2014-08-05T19:06:01.181Z,23.04
2014-08-05T19:07:05.855Z,23.04
2014-08-05T19:08:10.544Z,23.3
2014-08-05T19:09:15.233Z,23.08
2014-08-05T19:10:19.922Z,22.98
2014-08-05T19:11:24.613Z,22.88
2014-08-05T19:12:29.302Z,22.95
2014-08-05T19:13:33.975Z,23.06
2014-08-05T19:14:37.979Z,22.84
2014-08-05T19:15:42.669Z,22.87
2014-08-05T19:16:46.655Z,22.9
2014-08-05T19:17:51.345Z,22.93
2014-08-05T19:18:56.034Z,23.08
2014-08-05T19:20:00.708Z,23.09
2014-08-05T19:21:05.398Z,22.98
2014-08-05T19:22:10.680Z,22.78
2014-08-05T19:23:15.370Z,22.86
2014-08-05T19:24:20.060Z,23.04
2014-08-05T19:25:25.045Z,23.02
2014-08-05T19:26:30.032Z,22.62
2014-08-05T19:27:34.706Z,22.55
2014-08-05T19:28:39.395Z,22.48
2014-08-05T19:29:44.381Z,22.38
2014-08-05T19:30:49.057Z,22.28
2014-08-05T19:31:54.044Z,22.27
2014-08-05T19:32:58.717Z,22.12
2014-08-05T19:34:03.704Z,22.14
2014-08-05T19:35:08.409Z,22.12
2014-08-05T19:36:13.098Z,22.33
2014-08-05T19:37:17.788Z,22.39
2014-08-05T19:38:22.462Z,22.36
2014-08-05T19:39:27.151Z,22.23
2014-08-05T19:40:32.138Z,22.25
2014-08-05T19:41:36.812Z,22.18
2014-08-05T19:42:41.798Z,22.32
2014-08-05T19:43:46.783Z,22.22
2014-08-05T19:44:51.458Z,22.34
2014-08-05T19:45:56.444Z,22.12
2014-08-05T19:47:01.430Z,22.03
2014-08-05T19:48:06.419Z,22.24
2014-08-05T19:49:11.092Z,22.17
2014-08-05T19:50:16.079Z,22.13
2014-08-05T19:51:21.066Z,22.06
2014-08-05T19:52:25.739Z,21.97
2014-08-05T19:53:30.725Z,21.92
2014-08-05T19:54:35.712Z,21.92
2014-08-05T19:55:40.386Z,21.83
2014-08-05T19:56:45.075Z,21.9
2014-08-05T19:57:49.764Z,21.99
2014-08-05T19:58:54.455Z,21.97
2014-08-05T19:59:59.440Z,22.24
2014-08-05T20:01:04.115Z,22.2
2014-08-05T20:02:09.397Z,22.32
2014-08-05T20:03:14.384Z,21.98
2014-08-05T20:04:19.355Z,22.02
2014-08-05T20:05:23.358Z,21.94
2014-08-05T20:06:28.343Z,21.91
2014-08-05T20:07:33.017Z,22
2014-08-05T20:08:37.706Z,22.01
2014-08-05T20:09:42.380Z,21.96
2014-08-05T20:10:47.367Z,21.9
2014-08-05T20:11:52.042Z,21.8
2014-08-05T20:12:56.733Z,21.73
2014-08-05T20:14:01.406Z,21.72
2014-08-05T20:15:06.095Z,21.66
2014-08-05T20:16:11.083Z,21.76
2014-08-05T20:17:15.771Z,22.04
2014-08-05T20:18:20.461Z,22.3
2014-08-05T20:19:25.151Z,22.21
2014-08-05T20:20:29.840Z,22.1
2014-08-05T20:21:34.827Z,22.3
2014-08-05T20:22:39.798Z,22.24
2014-08-05T20:23:44.487Z,21.91
2014-08-05T20:24:49.473Z,21.74
2014-08-05T20:25:54.460Z,22.03
2014-08-05T20:26:58.758Z,21.91
2014-08-05T20:28:03.432Z,21.68
2014-08-05T20:29:08.122Z,21.64
2014-08-05T20:30:13.108Z,21.64
2014-08-05T20:31:17.783Z,21.54
2014-08-05T20:32:22.769Z,21.48
2014-08-05T20:33:27.442Z,21.43
2014-08-05T20:34:32.132Z,21.4
2014-08-05T20:35:36.134Z,21.26
2014-08-05T20:36:40.807Z,21.2
2014-08-05T20:37:45.795Z,21.55
2014-08-05T20:38:50.781Z,21.45
2014-08-05T20:39:55.470Z,21.58
2014-08-05T20:41:00.144Z,21.42
2014-08-05T20:42:04.834Z,21.32
2014-08-05T20:43:09.820Z,21.33
2014-08-05T20:44:14.494Z,21.4
2014-08-05T20:45:19.184Z,21.32
2014-08-05T20:46:23.857Z,21.31
2014-08-05T20:47:28.844Z,21.57
2014-08-05T20:48:33.534Z,21.39
2014-08-05T20:49:38.207Z,21.35
2014-08-05T20:50:43.194Z,21.34
2014-08-05T20:51:47.883Z,21.35
2014-08-05T20:52:52.573Z,21.53
2014-08-05T20:53:57.559Z,21.28
2014-08-05T20:55:02.248Z,21.18
2014-08-05T20:56:07.220Z,21.39
2014-08-05T20:57:12.206Z,21.39
2014-08-05T20:58:17.192Z,21.61
2014-08-05T20:59:22.179Z,21.56
2014-08-05T21:00:26.853Z,21.61
2014-08-05T21:01:31.543Z,21.7
2014-08-05T21:02:36.514Z,21.82
2014-08-05T21:03:41.205Z,21.82
2014-08-05T21:04:45.894Z,21.8
2014-08-05T21:05:50.881Z,21.46
2014-08-05T21:06:55.555Z,21.36
2014-08-05T21:08:00.243Z,21.28
2014-08-05T21:09:05.215Z,21.37
2014-08-05T21:10:09.904Z,21.19
2014-08-05T21:11:14.594Z,21.27
2014-08-05T21:12:19.283Z,20.96
2014-08-05T21:13:23.974Z,21.02
2014-08-05T21:14:28.647Z,21.16
2014-08-05T21:15:33.336Z,21.23
2014-08-05T21:16:38.011Z,21.23
2014-08-05T21:17:42.012Z,21.25
2014-08-05T21:18:46.999Z,21.19
2014-08-05T21:19:51.673Z,21.4
2014-08-05T21:20:56.362Z,21.33
2014-08-05T21:22:01.364Z,21.18
2014-08-05T21:23:06.054Z,20.9
2014-08-05T21:24:11.024Z,21.14
2014-08-05T21:25:15.714Z,20.99
2014-08-05T21:26:20.403Z,21.14
2014-08-05T21:27:25.078Z,21.02
2014-08-05T21:28:29.767Z,21.05
2014-08-05T21:29:34.754Z,21.02
2014-08-05T21:30:39.428Z,21.25
2014-08-05T21:31:44.414Z,21.03
2014-08-05T21:32:49.104Z,20.82
2014-08-05T21:33:53.106Z,20.92
2014-08-05T21:34:57.795Z,20.98
2014-08-05T21:36:02.469Z,20.97
2014-08-05T21:37:07.159Z,21.08
2014-08-05T21:38:11.161Z,20.74
2014-08-05T21:39:15.834Z,20.42
2014-08-05T21:40:20.524Z,20.59
2014-08-05T21:41:25.213Z,20.8
2014-08-05T21:42:30.185Z,20.87
2014-08-05T21:43:34.874Z,20.94
2014-08-05T21:44:39.564Z,20.88
2014-08-05T21:45:44.237Z,20.6
2014-08-05T21:46:48.928Z,20.66
2014-08-05T21:47:53.601Z,20.52
2014-08-05T21:48:58.290Z,20.59
2014-08-05T21:50:03.262Z,20.73
2014-08-05T21:51:07.951Z,20.73
2014-08-05T21:52:12.641Z,20.66
2014-08-05T21:53:17.611Z,20.48
2014-08-05T21:54:22.300Z,20.62
2014-08-05T21:55:26.975Z,20.94
2014-08-05T21:56:31.664Z,20.6
2014-08-05T21:57:36.635Z,20.36
2014-08-05T21:58:41.325Z,20.54
2014-08-05T21:59:46.609Z,20.77
2014-08-05T22:00:51.579Z,20.55
2014-08-05T22:01:56.565Z,20.3
2014-08-05T22:03:01.536Z,20.14
2014-08-05T22:04:06.225Z,20.1
2014-08-05T22:05:10.916Z,20.12
2014-08-05T22:06:15.589Z,20.08
2014-08-05T22:07:20.576Z,20.03